Date,TemperatureHighF,TemperatureAvgF,TemperatureLowF,DewpointHighF,DewpointAvgF,DewpointLowF,HumidityHigh,HumidityAvg,HumidityLow,PressureMaxIn,PressureMinIn,WindSpeedMaxMPH,WindSpeedAvgMPH,GustSpeedMaxMPH,PrecipitationSumIn
2013-1-8,46.3,44.7,42.1,45.5,41.3,32.7,100,88,66,30.15,30.00,18,4,21,1.14
2013-1-9,55.5,51.6,46.1,54.9,50.8,45.0,100,97,96,30.17,29.95,26,9,27,0.99
2013-1-10,54.2,50.3,46.3,53.6,46.9,44.0,98,88,78,30.04,29.96,17,3,19,0.00
2013-1-11,70.9,58.2,47.4,57.4,49.9,41.6,92,75,57,29.99,29.80,19,5,25,0.00
2013-1-12,61.2,49.7,33.0,59.7,40.8,23.3,95,72,50,30.05,29.75,23,6,26,0.00
2013-1-13,40.3,32.1,25.7,23.6,20.6,17.5,76,63,49,30.36,30.03,23,9,27,0.00
2013-1-14,56.4,31.9,24.3,50.6,19.9,16.6,96,62,34,30.52,30.02,20,8,22,0.05
2013-1-15,38.2,32.0,27.6,26.2,22.5,17.1,88,68,54,30.35,30.24,21,6,21,0.00
2013-1-16,50.1,36.0,22.6,24.6,19.0,13.4,77,54,24,30.42,30.26,17,1,21,0.00
2013-1-17,59.1,45.7,34.0,34.7,29.6,22.7,81,55,33,30.58,30.37,15,2,16,0.00
2013-1-18,62.1,48.7,35.7,34.5,31.1,27.8,74,53,31,30.57,30.31,19,2,19,0.00
2013-1-19,64.8,50.1,41.0,42.5,37.2,32.6,80,63,38,30.31,30.17,14,2,15,0.00
2013-1-20,68.5,53.5,35.1,44.1,38.8,32.6,93,61,33,30.27,30.13,12,1,13,0.00
2013-1-21,54.9,46.0,38.3,38.4,32.3,27.3,85,60,42,30.35,30.17,16,4,18,0.00
2013-1-22,68.0,51.7,34.1,48.3,37.7,25.6,75,60,44,30.37,30.21,11,1,12,0.00
2013-1-23,74.7,60.7,49.0,53.7,49.6,44.6,87,69,45,30.32,30.16,16,4,17,0.00
2013-1-24,80.8,63.8,48.6,58.3,50.8,42.5,92,67,32,30.22,30.05,19,3,19,0.00
2013-1-25,56.7,47.2,42.1,43.4,40.7,37.6,87,78,60,30.26,30.07,18,3,18,0.00
2013-1-26,59.4,49.7,38.0,50.6,42.8,34.8,93,78,52,30.28,30.11,8,0,0,0.00
2013-1-27,74.5,63.5,52.0,61.1,56.3,49.9,96,79,54,30.12,29.94,25,5,28,0.00
2013-1-28,78.5,69.4,64.2,63.3,62.2,60.8,91,79,58,30.01,29.83,28,6,29,0.00
2013-1-29,75.3,63.8,49.3,64.6,49.5,21.9,90,64,28,29.84,29.50,31,8,35,0.14
2013-1-30,51.2,44.4,37.5,31.7,21.5,14.0,69,42,23,30.22,29.78,37,7,37,0.00
2013-1-31,66.5,50.2,36.2,27.5,21.1,15.9,50,34,19,30.33,30.17,26,3,27,0.00
2013-2-1,61.6,47.4,29.7,36.7,29.7,20.8,74,52,31,30.43,30.19,20,3,21,0.00
2013-2-2,65.0,54.4,45.6,44.6,35.2,27.5,78,51,29,30.39,30.20,18,4,20,0.00
2013-2-3,65.8,54.8,33.8,37.3,28.5,20.4,79,40,19,30.39,30.00,22,4,23,0.00
2013-2-4,76.5,63.4,55.7,52.4,46.7,37.0,79,57,31,30.00,29.80,19,3,20,0.00
2013-2-5,68.3,54.7,41.7,55.0,47.0,33.6,95,76,59,30.06,29.90,17,2,18,0.00
2013-2-6,73.9,62.4,54.7,58.1,55.8,53.8,100,81,55,30.04,29.84,19,3,19,0.00
2013-2-7,72.5,61.3,49.4,57.7,50.2,39.9,91,70,33,30.19,29.89,22,6,25,0.00
2013-2-8,62.4,50.9,41.1,40.3,28.6,19.3,73,47,20,30.31,30.14,18,5,18,0.00
2013-2-9,62.3,52.4,48.2,61.4,48.3,29.8,97,87,47,30.17,29.74,27,7,28,0.01
2013-2-10,66.8,57.5,47.7,62.6,32.2,18.9,97,44,17,30.06,29.68,33,2,35,0.49
2013-2-11,56.2,51.1,46.0,41.8,35.3,22.8,80,56,29,30.16,30.01,19,6,22,0.00
2013-2-12,56.2,46.6,37.8,49.4,42.1,33.5,95,85,65,30.16,29.92,26,4,26,0.05
2013-2-13,60.7,45.6,31.1,37.0,30.1,21.6,94,60,24,30.23,30.09,22,2,26,0.00
2013-2-14,67.8,52.9,40.0,37.1,31.4,24.4,72,48,20,30.16,30.02,20,2,20,0.00
2013-2-15,50.6,43.8,34.7,36.1,28.4,16.2,71,56,32,30.48,30.08,25,8,25,0.00
2013-2-16,62.9,45.8,27.2,28.3,24.6,20.3,77,47,25,30.51,30.22,13,1,15,0.00
2013-2-17,70.8,56.5,44.2,45.9,31.6,25.4,71,41,20,30.22,29.91,26,5,27,0.00
2013-2-18,74.1,59.8,47.0,53.7,40.9,24.3,81,54,17,30.17,29.81,26,6,27,0.00
2013-2-19,59.4,49.5,37.9,32.6,25.4,17.8,64,41,21,30.35,30.14,22,6,22,0.00
2013-2-20,48.9,44.3,41.9,40.6,38.1,32.9,94,79,54,30.19,29.74,30,7,30,0.11
2013-2-21,65.2,52.7,41.9,49.4,37.6,21.8,97,65,21,29.97,29.63,31,7,35,0.10
2013-2-22,41.6,34.3,29.2,35.5,28.9,23.5,84,80,77,30.11,29.95,24,8,24,0.00
2013-4-13,66.4,64.3,62.9,48.8,47.0,46.3,60,53,49,29.81,29.80,17,4,20,0.00
2013-4-14,91.8,72.2,55.0,60.3,49.7,35.1,90,53,15,29.80,29.53,21,4,21,0.00
2013-4-15,87.6,76.5,66.4,65.9,62.2,55.0,87,63,43,29.74,29.61,24,4,26,0.00
2013-4-16,85.5,74.8,66.2,67.5,64.8,62.0,90,72,52,29.87,29.73,24,4,24,0.00
2013-4-17,81.2,74.3,70.6,68.9,67.4,65.5,92,80,62,29.85,29.59,32,8,33,0.00
2013-4-18,74.8,52.2,42.1,69.8,41.9,32.3,93,70,44,30.22,29.56,41,11,43,0.54
2013-4-19,64.3,50.5,36.6,32.8,27.5,21.7,75,45,22,30.39,30.21,22,4,22,0.00
2013-4-20,69.0,57.1,44.7,36.9,30.9,26.2,58,39,22,30.23,30.00,29,4,29,0.00
2013-4-21,70.5,59.2,48.2,53.3,48.4,36.8,86,69,52,30.20,30.06,22,4,24,0.00
2013-4-22,80.3,66.8,55.1,60.1,55.2,50.6,91,68,44,30.12,29.82,27,5,27,0.00
2013-4-23,69.0,49.7,39.8,59.3,43.2,34.3,89,79,68,30.27,29.79,25,9,25,0.00
2013-4-24,59.7,47.2,33.8,36.9,32.0,26.7,82,58,35,30.41,30.27,25,8,27,0.00
2013-4-25,71.8,60.1,50.9,46.8,40.2,35.8,64,49,30,30.40,30.15,17,2,20,0.00
2013-4-26,76.9,66.7,60.2,65.3,57.4,45.7,92,73,58,30.17,29.99,27,5,27,0.00
2013-4-27,77.1,67.5,58.4,65.1,57.1,49.8,91,71,41,30.15,30.00,14,2,14,0.00
2013-4-28,85.8,70.2,52.3,63.9,56.1,49.1,94,65,30,30.07,29.85,19,2,19,0.00
2013-4-29,85.0,72.8,62.6,65.0,59.9,53.8,91,66,36,29.90,29.76,18,3,19,0.00
2013-4-30,83.8,71.1,60.1,64.2,60.4,57.1,94,71,46,29.83,29.71,17,3,19,0.00
2013-5-1,73.5,66.3,63.5,65.3,61.6,59.1,92,85,74,29.89,29.76,15,2,17,0.00
2013-5-2,71.2,48.2,39.9,62.7,43.1,34.3,92,83,69,30.46,29.99,32,11,33,0.01
2013-5-3,66.0,51.2,34.9,34.6,28.7,22.6,82,48,21,30.46,30.09,23,3,25,0.00
2013-5-4,76.3,60.2,41.9,35.3,30.1,25.9,60,35,18,30.09,29.95,20,3,20,0.00
2013-5-5,70.5,56.2,42.7,47.3,41.2,27.0,79,59,34,30.24,30.06,19,4,19,0.00
2013-5-6,72.7,60.8,50.1,54.1,48.1,44.0,91,65,41,30.19,30.05,11,0,0,0.00
2013-5-7,83.2,69.1,53.2,54.7,50.2,46.3,92,56,30,30.12,29.92,19,2,19,0.00
2013-5-8,78.7,71.4,63.2,63.9,58.3,49.5,74,64,47,29.99,29.86,23,4,25,0.00
2013-5-9,72.3,67.6,62.9,64.3,61.4,55.7,93,81,64,30.03,29.84,25,3,25,0.40
2013-5-10,78.8,66.9,60.6,64.2,60.1,55.6,96,80,51,30.10,29.89,23,2,23,0.00
2013-5-11,78.3,67.7,56.6,57.5,51.3,44.6,88,59,32,30.21,30.09,25,6,27,0.00
2013-5-12,78.3,66.5,56.0,51.0,46.4,40.1,78,51,32,30.32,30.17,23,3,24,0.00
2013-5-13,85.0,70.5,55.8,52.8,45.8,41.7,63,44,23,30.27,30.14,15,2,16,0.00
2013-5-14,85.3,73.3,60.2,61.7,54.6,48.8,79,54,31,30.19,29.97,21,4,27,0.00
2013-5-15,84.3,73.4,65.8,68.8,64.6,59.2,93,75,55,30.04,29.70,32,5,37,0.13
2013-5-16,88.8,74.9,62.2,73.1,67.3,58.5,93,78,55,29.80,29.71,17,2,20,0.00
2013-5-17,93.3,80.4,72.2,74.4,72.0,70.0,94,77,53,29.82,29.73,21,4,21,0.00
2013-5-18,89.9,80.8,70.8,71.6,69.2,64.5,92,69,50,29.85,29.71,30,6,30,0.00
2013-5-19,90.6,79.4,68.4,71.2,67.3,63.4,88,68,47,29.80,29.64,25,6,25,0.00
2013-5-20,89.8,77.5,69.5,71.3,67.6,54.3,91,73,40,29.79,29.62,30,5,32,0.05
2013-5-21,75.3,70.1,60.4,69.9,62.1,51.6,93,77,50,29.91,29.70,0,0,0,0.00
2013-5-22,86.5,71.0,54.2,58.7,53.6,48.3,90,59,28,29.98,29.84,0,0,0,0.00
2013-5-23,84.3,76.5,70.1,72.5,69.3,57.1,95,79,61,30.09,29.86,0,0,0,0.00
2013-5-24,81.8,72.2,65.4,71.5,67.7,61.4,95,86,68,30.15,29.96,0,0,0,0.94
2013-5-25,79.6,70.0,64.5,69.7,66.0,62.0,96,88,68,30.16,30.02,0,0,0,0.18
2013-5-26,85.6,76.1,69.6,72.1,69.0,67.0,93,80,58,30.09,29.90,0,0,0,0.00
2013-5-27,82.8,74.7,67.6,71.1,68.1,65.5,93,81,63,29.98,29.78,0,0,0,0.00
2013-5-28,82.8,75.5,68.0,69.7,67.2,64.6,90,76,62,29.88,29.61,0,0,0,0.00
2013-5-29,81.8,76.4,72.0,71.2,68.9,66.5,86,78,70,29.77,29.64,0,0,0,0.00
2013-5-30,86.2,78.3,70.2,72.2,69.6,67.1,93,76,61,29.78,29.68,0,0,0,0.00
2013-5-31,91.3,81.8,74.5,73.7,71.7,70.0,87,73,55,29.82,29.67,0,0,0,0.00
2013-6-1,86.5,78.5,73.9,73.5,69.9,57.1,87,75,52,29.97,29.69,0,0,0,0.02
2013-6-2,86.8,75.3,63.8,60.1,56.8,52.6,81,54,37,30.11,29.93,0,0,0,0.00
2013-6-3,89.8,75.8,62.2,62.6,57.0,51.4,74,54,35,30.02,29.82,0,0,0,0.00
2013-6-4,90.6,80.4,69.2,70.0,65.0,62.6,85,62,41,29.92,29.73,0,0,0,0.02
2013-6-5,91.2,80.4,70.5,67.4,64.8,61.4,81,60,42,29.91,29.74,0,0,0,0.00
2013-6-6,81.3,74.1,66.3,67.7,63.8,61.1,88,71,53,29.97,29.81,0,0,0,0.08
2013-6-7,83.7,73.1,61.3,65.7,57.8,52.1,95,63,38,30.05,29.91,0,0,0,0.00
2013-6-8,83.9,70.3,63.4,60.9,56.0,54.1,74,62,43,29.98,29.89,0,0,0,0.00
2013-6-9,90.0,78.8,64.1,67.7,64.2,59.9,95,65,40,29.96,29.88,16,0,16,0.40
2013-6-10,95.1,81.1,68.3,70.8,63.2,51.9,88,59,24,30.00,29.91,0,0,0,0.00
2013-6-11,91.3,80.2,71.7,72.6,68.0,62.1,89,68,44,30.02,29.91,0,0,0,0.00
2013-6-12,91.8,80.2,71.2,71.0,68.4,64.2,93,69,44,30.05,29.92,0,0,0,0.00
2013-6-13,94.3,81.9,71.7,71.9,67.8,64.0,90,65,40,30.07,29.90,0,0,0,0.00
2013-6-14,90.2,81.0,72.1,70.4,67.6,63.0,82,65,47,30.00,29.90,0,0,0,0.00
2013-6-15,85.8,80.2,75.5,72.5,69.5,66.4,81,70,55,30.00,29.89,0,0,0,0.00
2013-6-16,93.7,85.5,73.9,72.1,68.3,66.1,82,58,43,30.03,29.86,0,0,0,0.00
2013-6-17,94.0,83.2,69.2,72.2,68.6,65.0,88,62,47,30.02,29.80,0,0,0,0.00
2013-6-18,93.2,81.9,67.4,72.7,64.8,60.6,85,58,38,30.03,29.87,0,0,0,0.00
2013-6-19,95.1,78.9,68.1,72.3,67.4,62.4,93,71,40,30.03,29.80,1,0,0,0.72
2013-6-20,92.5,82.3,70.5,71.2,67.0,64.0,86,62,42,30.04,29.89,0,0,0,0.00
2013-6-21,93.5,80.9,73.9,70.9,67.1,59.9,88,66,35,30.04,29.93,0,0,0,0.00
2013-6-22,93.2,81.3,72.4,70.0,64.1,59.2,84,59,34,30.00,29.86,0,0,0,0.00
2013-6-23,91.0,79.7,72.9,68.3,65.4,57.9,82,63,34,29.96,29.85,0,0,0,0.00
2013-7-3,77.5,76.6,75.7,48.5,47.6,46.8,38,36,34,29.98,29.97,0,0,0,0.00
2013-7-4,96.5,83.4,69.3,61.2,54.4,47.2,66,40,20,30.00,29.88,0,0,0,0.00
2013-7-14,74.1,70.3,65.1,65.9,64.7,62.7,96,83,68,30.00,29.90,0,0,0,1.19
2013-7-15,70.5,66.1,63.1,69.3,64.8,61.9,97,96,93,30.09,29.97,0,0,0,2.08
2013-7-16,82.8,74.9,67.6,73.2,70.5,66.1,97,87,70,30.19,30.06,0,0,0,0.14
2013-7-17,81.9,73.1,68.9,74.7,70.2,67.4,96,91,71,30.24,30.15,0,0,0,0.48
2013-7-18,89.7,81.7,69.4,73.2,67.5,64.0,97,64,45,30.21,30.03,0,0,0,0.01
2013-7-19,92.8,80.7,71.9,70.7,67.5,61.9,85,67,38,30.07,29.91,0,0,0,0.00
2013-7-20,93.9,83.4,71.3,72.5,69.1,65.5,91,64,41,29.99,29.83,0,0,0,0.04
2013-7-21,93.5,81.4,72.5,72.8,69.5,63.6,91,69,40,29.94,29.84,0,0,0,0.00
2013-7-22,93.3,85.4,74.7,75.8,71.5,68.5,91,65,47,29.97,29.85,0,0,0,0.00
2013-7-23,93.3,85.9,76.7,76.6,71.5,65.6,87,63,47,29.96,29.82,0,0,0,0.00
2013-7-24,96.3,86.2,75.8,75.4,71.6,66.0,87,63,47,30.01,29.86,0,0,0,0.00
2013-7-25,96.0,82.1,75.1,76.0,72.7,69.2,92,75,46,30.03,29.95,0,0,0,0.13
2013-7-26,95.5,82.7,77.5,75.7,70.2,66.4,82,67,49,30.01,29.88,0,0,0,0.01
2013-7-27,87.0,78.5,69.6,69.0,65.0,60.7,92,66,42,30.04,29.92,0,0,0,0.00
2013-7-28,90.5,82.0,67.3,70.9,66.9,64.0,92,63,43,29.99,29.86,0,0,0,0.00
2013-7-29,94.4,85.1,75.9,75.2,69.8,62.2,87,63,39,29.97,29.89,0,0,0,0.00
2013-7-30,95.9,86.1,76.4,73.1,70.0,64.4,82,60,39,30.06,29.94,0,0,0,0.00
2013-7-31,85.2,81.0,77.8,70.8,67.6,65.7,72,64,55,30.06,29.98,0,0,0,0.00
2013-8-8,97.1,90.8,75.1,72.1,65.2,60.0,78,45,34,29.86,29.76,0,0,0,0.70
2013-8-9,100.7,82.5,73.4,73.4,67.9,62.7,88,65,30,29.99,29.83,0,0,0,0.33
2013-8-10,93.8,82.4,73.2,75.1,70.8,67.4,91,69,45,30.08,29.96,0,0,0,0.00
2013-8-11,98.0,85.4,74.7,73.4,69.2,66.9,81,60,39,30.08,29.94,1,0,0,0.00
2013-8-12,97.2,80.8,73.1,71.5,68.3,65.0,86,68,37,30.05,29.91,0,0,0,0.00
2013-8-13,99.8,86.8,77.6,71.8,68.1,62.7,76,56,31,30.02,29.87,0,0,0,0.00
2013-8-14,90.0,78.3,73.0,72.6,70.2,65.0,91,78,48,30.04,29.92,0,0,0,0.00
2013-8-15,89.0,79.7,70.2,72.7,70.1,68.0,94,74,57,30.04,29.95,0,0,0,0.00
2013-8-16,83.2,74.5,62.9,69.5,67.1,61.1,95,79,53,30.11,29.97,0,0,0,0.35
2013-8-17,88.0,73.2,65.3,67.3,63.2,59.3,88,72,44,30.11,29.98,0,0,0,0.00
2013-8-18,89.2,79.6,68.5,63.8,60.6,58.0,72,53,40,30.11,30.00,0,0,0,0.00
2013-8-19,92.8,82.6,70.7,63.5,60.5,57.2,67,48,34,30.08,29.93,0,0,0,0.00
2013-8-20,93.5,82.4,72.9,66.6,60.4,56.1,71,49,30,30.03,29.95,0,0,0,0.00
2013-8-21,92.2,80.2,71.2,70.4,65.9,56.5,81,63,42,30.08,29.97,0,0,0,0.00
2013-8-22,94.8,84.9,75.1,70.5,67.1,62.8,79,57,36,30.09,29.92,0,0,0,0.00
2013-8-23,95.7,82.6,75.2,71.5,66.3,63.1,77,59,37,30.03,29.90,0,0,0,0.00
2013-8-24,96.9,84.2,73.4,70.0,66.5,63.4,74,56,35,30.06,29.95,0,0,0,0.00
2013-8-25,93.5,81.9,75.0,70.8,66.7,63.3,78,62,38,30.13,30.03,0,0,0,0.00
2013-8-26,91.1,82.0,72.2,70.4,66.6,64.1,83,61,43,30.16,30.04,0,0,0,0.00
2013-8-27,84.7,76.5,70.5,72.5,68.2,64.4,90,76,57,30.12,30.03,0,0,0,0.00
2013-8-28,95.0,83.4,70.4,70.9,65.0,60.7,93,59,33,30.13,30.00,0,0,0,0.00
2013-8-29,96.3,88.6,75.9,65.4,61.4,59.8,69,41,33,30.05,29.96,0,0,0,0.00
2013-8-30,101.0,88.7,73.0,66.6,61.8,57.8,67,43,26,30.03,29.87,0,0,0,0.00
2013-8-31,103.3,89.1,76.3,66.8,62.4,58.9,62,43,26,29.91,29.78,0,0,0,0.00
2013-9-1,86.2,81.2,78.0,66.6,65.1,62.8,65,59,47,29.88,29.80,0,0,0,0.00
2013-9-25,90.8,89.5,87.9,62.7,61.1,59.4,41,39,37,29.82,29.77,0,0,0,0.00
2013-9-26,89.0,79.5,69.4,61.7,58.5,52.4,71,51,30,29.89,29.79,0,0,0,0.00
2013-9-27,76.2,76.2,76.2,60.3,60.3,60.3,58,58,58,29.86,29.86,0,0,0,0.00
2013-9-28,80.7,71.6,62.0,72.9,67.7,58.1,94,88,74,30.10,29.83,0,0,0,0.15
2013-9-29,79.5,69.0,60.0,58.2,53.7,47.0,85,62,33,30.12,29.98,0,0,0,0.00
2013-10-15,63.2,56.0,51.1,61.7,54.6,49.7,96,95,94,30.04,30.00,0,0,0,0.00
2013-10-28,73.5,71.1,67.1,67.7,66.1,64.5,92,84,79,30.10,29.99,0,0,0,0.00
2013-11-3,59.6,54.9,47.9,39.0,37.1,35.8,63,51,46,30.22,30.19,0,0,0,0.00